Time;durP1;ratioP1;P1;durP2;ratioP2;P2;SDS_P1;SDS_P2;PMS_P1;PMS_P2;Temp;Humidity;BMP_temperature;BMP_pressure;BME280_temperature;BME280_humidity;BME280_pressure;Samples;Min_cycle;Max_cycle;Signal;HPM_P1;HPM_P2
2023/04/13 00:01:11;;;;;;;;;;;;;;;8.92;58.72;97694.50;4469989;32;20039;-65
2023/04/13 00:03:38;;;;;;;;;;;;;;;8.91;59.41;97692.84;4470131;32;19992;-65
2023/04/13 00:06:09;;;;;;;;;;;;;;;8.93;60.73;97688.28;4470763;32;19979;-65
2023/04/13 00:08:37;;;;;;;;;;;;;;;8.96;59.57;97682.78;4470500;32;20032;-65
2023/04/13 00:11:06;;;;;;;;;;;;;;;8.90;59.49;97683.34;4470065;32;19984;-65
2023/04/13 00:13:39;;;;;;;;;;;;;;;8.98;59.63;97683.44;4470268;32;20359;-65
2023/04/13 00:16:08;;;;;;;;;;;;;;;8.87;59.93;97681.06;4455165;32;20029;-65
2023/04/13 00:18:35;;;;;;;;;;;;;;;8.92;59.55;97683.19;4454932;32;20338;-65
2023/04/13 00:21:03;;;;;;;;;;;;;;;8.97;59.87;97689.63;4454994;32;20343;-65
2023/04/13 00:23:31;;;;;;;;;;;;;;;8.87;61.21;97675.81;4454996;32;19985;-64
2023/04/13 00:26:00;;;;;;;;;;;;;;;8.78;63.38;97677.59;4454846;32;19972;-65
2023/04/13 00:28:28;;;;;;;;;;;;;;;8.80;63.54;97678.25;4453560;32;19999;-65
2023/04/13 00:30:58;;;;;;;;;;;;;;;8.77;63.81;97672.53;4454605;32;19976;-65
2023/04/13 00:33:25;;;;;;;;;;;;;;;8.87;61.29;97679.28;4454688;32;20038;-65
2023/04/13 00:35:52;;;;;;;;;;;;;;;8.93;61.33;97669.19;4454712;32;20360;-65
2023/04/13 00:38:22;;;;;;;;;;;;;;;8.84;61.68;97668.31;4454742;32;20048;-65
2023/04/13 00:40:51;;;;;;;;;;;;;;;8.75;63.68;97664.84;4454647;32;20357;-65
2023/04/13 00:43:19;;;;;;;;;;;;;;;8.84;63.43;97668.31;4454687;32;20389;-65
2023/04/13 00:45:48;;;;;;;;;;;;;;;8.82;62.55;97672.88;4454484;32;19976;-65
2023/04/13 00:48:16;;;;;;;;;;;;;;;8.78;63.13;97674.13;4453904;32;20399;-65
2023/04/13 00:50:44;;;;;;;;;;;;;;;8.81;63.58;97676.44;4454594;32;19999;-65
2023/04/13 00:53:12;;;;;;;;;;;;;;;8.79;64.45;97670.56;4454690;32;19994;-65
2023/04/13 00:55:41;;;;;;;;;;;;;;;8.74;63.60;97675.44;4454351;32;19985;-65
2023/04/13 00:58:09;;;;;;;;;;;;;;;8.80;63.63;97667.00;4454603;32;19977;-65
2023/04/13 01:00:37;;;;;;;;;;;;;;;8.72;65.22;97665.16;4454444;32;19972;-65
2023/04/13 01:03:06;;;;;;;;;;;;;;;8.75;62.12;97664.00;4454436;32;20044;-65
2023/04/13 01:05:36;;;;;;;;;;;;;;;8.91;61.87;97671.94;4454369;32;19996;-65
2023/04/13 01:08:08;;;;;;;;;;;;;;;8.89;61.66;97673.91;4453492;32;19976;-65
2023/04/13 01:10:38;;;;;;;;;;;;;;;8.84;61.90;97668.31;4452949;32;19988;-65
2023/04/13 01:13:19;;;;;;;;;;;;;;;8.68;63.50;97669.03;4468156;32;19984;-65
2023/04/13 01:15:52;;;;;;;;;;;;;;;8.70;63.30;97673.12;4469111;32;19996;-65
2023/04/13 01:18:21;;;;;;;;;;;;;;;8.63;62.91;97660.81;4468928;32;20366;-65
2023/04/13 01:20:49;;;;;;;;;;;;;;;8.69;62.86;97655.81;4469821;32;20002;-65
2023/04/13 01:23:42;;;;;;;;;;;;;;;8.80;61.51;97662.56;4468842;32;19998;-65
2023/04/13 01:26:10;;;;;;;;;;;;;;;8.76;62.07;97652.59;4405699;32;19981;-64
2023/04/13 01:28:37;;;;;;;;;;;;;;;8.67;61.46;97652.50;4393516;32;19981;-64
2023/04/13 01:31:10;;;;;;;;;;;;;;;8.71;60.43;97658.28;4393252;32;19986;-64
2023/04/13 01:33:40;;;;;;;;;;;;;;;8.72;61.12;97659.91;4406211;32;19992;-65
2023/04/13 01:36:08;;;;;;;;;;;;;;;8.78;60.07;97653.25;4405667;32;20391;-65
2023/04/13 01:38:36;;;;;;;;;;;;;;;8.68;61.27;97662.00;4393549;32;20005;-65
2023/04/13 01:41:04;;;;;;;;;;;;;;;8.80;61.32;97659.16;4405743;32;20041;-65
2023/04/13 01:43:33;;;;;;;;;;;;;;;8.74;60.33;97662.38;4405996;32;19989;-65
2023/04/13 01:46:03;;;;;;;;;;;;;;;8.77;60.07;97673.31;4405830;32;20545;-65
2023/04/13 01:48:43;;;;;;;;;;;;;;;8.85;59.74;97662.91;4406025;32;19992;-64
2023/04/13 01:51:18;;;;;;;;;;;;;;;8.90;60.75;97657.25;4405695;32;20005;-64
2023/04/13 01:53:47;;;;;;;;;;;;;;;8.99;59.67;97665.94;4405835;32;19993;-65
2023/04/13 01:56:16;;;;;;;;;;;;;;;9.04;60.12;97653.25;4405776;32;20470;-65
2023/04/13 01:58:43;;;;;;;;;;;;;;;9.01;59.19;97671.84;4405860;32;20452;-65
2023/04/13 02:01:11;;;;;;;;;;;;;;;8.99;59.47;97665.94;4393235;32;20001;-64
2023/04/13 02:03:41;;;;;;;;;;;;;;;8.95;60.27;97670.69;4453769;32;20039;-65
2023/04/13 02:06:09;;;;;;;;;;;;;;;8.87;60.21;97668.84;4469458;32;20297;-65
2023/04/13 02:08:39;;;;;;;;;;;;;;;8.93;61.21;97661.34;4469564;32;19972;-65
2023/04/13 02:11:06;;;;;;;;;;;;;;;8.92;60.12;97659.69;4468782;32;20708;-64
2023/04/13 02:13:33;;;;;;;;;;;;;;;8.82;60.28;97654.59;4469366;32;19980;-65
2023/04/13 02:16:02;;;;;;;;;;;;;;;8.88;60.11;97664.41;4469567;32;20008;-64
2023/04/13 02:18:30;;;;;;;;;;;;;;;8.79;60.23;97658.31;4469364;32;19980;-64
2023/04/13 02:21:06;;;;;;;;;;;;;;;8.80;60.33;97667.00;4469639;32;20274;-64
2023/04/13 02:23:35;;;;;;;;;;;;;;;8.81;60.07;97663.38;4469363;32;20007;-65
2023/04/13 02:26:03;;;;;;;;;;;;;;;8.68;60.78;97662.00;4468833;32;19971;-65
2023/04/13 02:28:30;;;;;;;;;;;;;;;8.68;62.56;97659.38;4469379;32;19980;-65
2023/04/13 02:31:02;;;;;;;;;;;;;;;8.76;61.18;97657.81;4468993;32;19992;-65
2023/04/13 02:33:30;;;;;;;;;;;;;;;8.86;60.99;97661.16;4469142;32;19990;-65
2023/04/13 02:35:59;;;;;;;;;;;;;;;8.81;60.87;97653.78;4469273;32;19999;-65
2023/04/13 02:38:27;;;;;;;;;;;;;;;8.89;59.75;97658.22;4469505;32;19984;-64
2023/04/13 02:40:56;;;;;;;;;;;;;;;8.88;60.41;97659.19;4469080;32;20337;-65
2023/04/13 02:43:25;;;;;;;;;;;;;;;8.83;61.15;97656.25;4468952;32;20006;-65
2023/04/13 02:45:52;;;;;;;;;;;;;;;8.83;59.43;97653.63;4468986;32;19980;-64
2023/04/13 02:48:21;;;;;;;;;;;;;;;8.87;59.31;97652.31;4469209;32;20431;-64
2023/04/13 02:50:48;;;;;;;;;;;;;;;8.93;59.40;97650.91;4469019;32;19976;-65
2023/04/13 02:53:16;;;;;;;;;;;;;;;8.86;58.90;97653.31;4469175;32;20453;-65
2023/04/13 02:55:44;;;;;;;;;;;;;;;8.74;58.36;97642.31;4469046;32;20362;-65
2023/04/13 02:58:12;;;;;;;;;;;;;;;8.84;58.45;97650.84;4469122;32;20341;-64
2023/04/13 03:00:40;;;;;;;;;;;;;;;8.88;58.79;97649.56;4468969;32;20004;-65
2023/04/13 03:03:08;;;;;;;;;;;;;;;8.88;58.04;97646.13;4469006;32;20060;-64
2023/04/13 03:05:36;;;;;;;;;;;;;;;8.91;58.37;97658.88;4468822;32;19994;-64
2023/04/13 03:08:04;;;;;;;;;;;;;;;9.00;58.16;97657.16;4468915;32;19976;-64
2023/04/13 03:10:31;;;;;;;;;;;;;;;8.89;59.07;97650.41;4468714;32;20010;-64
2023/04/13 03:13:00;;;;;;;;;;;;;;;8.97;57.73;97650.44;4468655;32;20386;-64
2023/04/13 03:15:28;;;;;;;;;;;;;;;8.90;59.44;97653.81;4468823;32;19980;-64
2023/04/13 03:17:58;;;;;;;;;;;;;;;8.84;58.78;97653.47;4468701;32;19987;-64
2023/04/13 03:20:27;;;;;;;;;;;;;;;8.81;59.07;97656.38;4468875;32;20444;-64
2023/04/13 03:22:57;;;;;;;;;;;;;;;8.83;60.38;97654.44;4467299;32;20392;-65
2023/04/13 03:25:25;;;;;;;;;;;;;;;8.94;60.02;97653.34;4468549;32;20415;-64
2023/04/13 03:27:52;;;;;;;;;;;;;;;8.74;59.72;97647.53;4468432;32;20318;-64
2023/04/13 03:30:20;;;;;;;;;;;;;;;8.76;60.48;97648.19;4467159;32;20327;-65
2023/04/13 03:32:48;;;;;;;;;;;;;;;8.73;60.28;97645.06;4468604;32;20040;-64
2023/04/13 03:35:16;;;;;;;;;;;;;;;8.73;60.72;97647.69;4468426;32;19980;-65
2023/04/13 03:37:43;;;;;;;;;;;;;;;8.69;59.89;97644.53;4469843;32;20057;-64
2023/04/13 03:40:11;;;;;;;;;;;;;;;8.57;60.29;97638.75;4470975;32;19988;-64
2023/04/13 03:42:40;;;;;;;;;;;;;;;8.68;60.12;97633.28;4470424;32;20462;-65
2023/04/13 03:45:08;;;;;;;;;;;;;;;8.69;60.35;97639.31;4469584;32;20029;-65
2023/04/13 03:47:37;;;;;;;;;;;;;;;8.62;61.82;97639.13;4470918;32;20043;-65
2023/04/13 03:50:06;;;;;;;;;;;;;;;8.37;63.42;97634.66;4470835;32;20001;-65
2023/04/13 03:52:33;;;;;;;;;;;;;;;8.35;64.44;97633.00;4470598;32;19980;-65
2023/04/13 03:55:02;;;;;;;;;;;;;;;8.27;64.61;97632.94;4470765;32;20503;-64
2023/04/13 03:57:30;;;;;;;;;;;;;;;8.11;64.52;97632.81;4470784;32;19983;-65
2023/04/13 03:59:58;;;;;;;;;;;;;;;8.09;63.96;97624.31;4469466;32;19984;-65
2023/04/13 04:02:26;;;;;;;;;;;;;;;8.15;64.50;97631.53;4470699;32;20432;-65
2023/04/13 04:04:54;;;;;;;;;;;;;;;8.05;65.73;97634.22;4470483;32;20036;-65
2023/04/13 04:07:22;;;;;;;;;;;;;;;8.03;65.12;97635.34;4470643;32;19980;-64
2023/04/13 04:09:50;;;;;;;;;;;;;;;8.05;64.92;97633.41;4470865;32;20052;-64
2023/04/13 04:12:18;;;;;;;;;;;;;;;8.03;64.67;97638.78;4468661;32;20011;-65
2023/04/13 04:14:45;;;;;;;;;;;;;;;8.17;64.91;97638.25;4470252;32;19988;-65
2023/04/13 04:17:13;;;;;;;;;;;;;;;8.15;65.12;97637.56;4470416;32;20012;-65
2023/04/13 04:19:41;;;;;;;;;;;;;;;8.22;64.35;97640.41;4470668;32;19984;-65
2023/04/13 04:22:08;;;;;;;;;;;;;;;8.24;63.26;97635.06;4470401;32;20086;-65
2023/04/13 04:24:35;;;;;;;;;;;;;;;8.17;64.00;97640.03;4470457;32;20002;-65
2023/04/13 04:27:04;;;;;;;;;;;;;;;8.07;62.99;97647.09;4470283;32;19982;-65
2023/04/13 04:29:34;;;;;;;;;;;;;;;8.05;63.64;97636.81;4470517;32;20037;-64
2023/04/13 04:32:04;;;;;;;;;;;;;;;8.03;63.61;97641.38;4470410;32;19988;-65
2023/04/13 04:34:32;;;;;;;;;;;;;;;7.97;63.66;97634.16;4470379;32;20341;-65
2023/04/13 04:37:02;;;;;;;;;;;;;;;7.95;64.03;97647.34;4470490;32;19988;-64
2023/04/13 04:39:43;;;;;;;;;;;;;;;7.93;63.36;97643.22;4470363;32;19976;-64
2023/04/13 04:42:11;;;;;;;;;;;;;;;7.91;62.95;97646.00;4460584;32;19980;-65
2023/04/13 04:44:39;;;;;;;;;;;;;;;8.03;63.35;97654.41;4468017;32;19980;-65
2023/04/13 04:47:06;;;;;;;;;;;;;;;8.01;63.29;97658.97;4468118;32;19976;-65
2023/04/13 04:49:35;;;;;;;;;;;;;;;8.15;63.03;97661.06;4467734;32;20036;-65
2023/04/13 04:52:03;;;;;;;;;;;;;;;8.15;62.91;97657.62;4468166;32;20001;-64
2023/04/13 04:54:30;;;;;;;;;;;;;;;8.18;62.85;97657.34;4467670;32;19988;-64
2023/04/13 04:57:00;;;;;;;;;;;;;;;8.17;62.76;97650.47;4468120;32;19980;-65
2023/04/13 04:59:29;;;;;;;;;;;;;;;8.23;61.90;97654.28;4468017;32;19983;-65
2023/04/13 05:01:56;;;;;;;;;;;;;;;8.28;62.00;97652.87;4466303;32;20063;-65
2023/04/13 05:04:23;;;;;;;;;;;;;;;8.41;61.26;97651.66;4464285;32;19980;-63
2023/04/13 05:06:52;;;;;;;;;;;;;;;8.54;61.11;97652.13;4468115;32;19980;-65
2023/04/13 05:09:20;;;;;;;;;;;;;;;8.67;60.80;97643.88;4468265;32;20029;-64
2023/04/13 05:11:48;;;;;;;;;;;;;;;8.69;61.01;97653.22;4465573;32;19987;-64
2023/04/13 05:14:17;;;;;;;;;;;;;;;8.85;61.00;97662.13;4464184;32;19996;-65
2023/04/13 05:16:45;;;;;;;;;;;;;;;9.01;60.05;97661.41;4466221;32;19980;-65
2023/04/13 05:19:13;;;;;;;;;;;;;;;9.09;59.72;97658.03;4465044;32;19996;-64
2023/04/13 05:21:41;;;;;;;;;;;;;;;9.12;58.71;97663.75;4466457;32;20020;-65
2023/04/13 05:24:10;;;;;;;;;;;;;;;9.27;58.87;97671.81;4464448;32;19991;-65
2023/04/13 05:26:37;;;;;;;;;;;;;;;9.39;57.81;97670.56;4467573;32;19992;-64
2023/04/13 05:29:06;;;;;;;;;;;;;;;9.58;56.54;97672.12;4464963;32;19979;-65
2023/04/13 05:31:34;;;;;;;;;;;;;;;9.82;57.99;97673.16;4466341;32;19976;-65
2023/04/13 05:34:02;;;;;;;;;;;;;;;9.91;56.31;97664.38;4467026;32;19998;-65
2023/04/13 05:36:31;;;;;;;;;;;;;;;9.88;57.55;97669.91;4472681;32;20009;-65
2023/04/13 05:39:00;;;;;;;;;;;;;;;9.75;57.38;97669.56;4469814;32;20768;-64
2023/04/13 05:41:28;;;;;;;;;;;;;;;9.70;56.72;97670.03;4471012;32;20033;-65
2023/04/13 05:43:56;;;;;;;;;;;;;;;9.64;57.00;97669.84;4468995;32;20002;-65
2023/04/13 05:46:25;;;;;;;;;;;;;;;9.64;57.56;97669.84;4480450;31;19972;-65
2023/04/13 05:48:53;;;;;;;;;;;;;;;9.51;57.29;97655.44;4467552;31;19988;-65
2023/04/13 05:51:21;;;;;;;;;;;;;;;9.52;57.97;97667.53;4475636;32;20085;-65
2023/04/13 05:53:51;;;;;;;;;;;;;;;9.53;57.50;97668.34;4466721;31;20318;-65
2023/04/13 05:56:18;;;;;;;;;;;;;;;9.62;57.73;97672.62;4462628;32;20041;-65
2023/04/13 05:58:47;;;;;;;;;;;;;;;9.74;57.08;97666.13;4466551;32;20004;-63
2023/04/13 06:01:15;;;;;;;;;;;;;;;9.83;56.36;97669.59;4465396;32;20028;-65
2023/04/13 06:03:43;;;;;;;;;;;;;;;9.88;56.42;97667.28;4466785;32;20007;-66
2023/04/13 06:06:11;;;;;;;;;;;;;;;9.88;56.37;97656.03;4467789;32;20298;-66
2023/04/13 06:08:39;;;;;;;;;;;;;;;10.16;61.03;97668.81;4466282;32;19992;-66
2023/04/13 06:11:06;;;;;;;;;;;;;;;10.47;55.61;97663.81;4466840;32;19984;-66
2023/04/13 06:13:36;;;;;;;;;;;;;;;10.61;54.81;97663.16;4470346;32;20007;-66
2023/04/13 06:16:03;;;;;;;;;;;;;;;10.82;58.78;97662.66;4465878;32;19984;-64
2023/04/13 06:18:30;;;;;;;;;;;;;;;11.11;56.02;97666.53;4461025;32;20275;-65
2023/04/13 06:20:58;;;;;;;;;;;;;;;11.10;53.99;97664.88;4466035;32;20014;-64
2023/04/13 06:23:25;;;;;;;;;;;;;;;11.15;53.71;97670.44;4467561;32;20425;-66
2023/04/13 06:25:53;;;;;;;;;;;;;;;11.22;53.47;97672.38;4464265;32;19983;-66
2023/04/13 06:28:27;;;;;;;;;;;;;;;11.17;54.00;97673.72;4469692;32;20014;-66
2023/04/13 06:30:57;;;;;;;;;;;;;;;11.11;54.89;97668.31;4464024;32;20026;-67
2023/04/13 06:33:25;;;;;;;;;;;;;;;11.13;57.00;97672.41;4464562;32;19984;-66
2023/04/13 06:35:53;;;;;;;;;;;;;;;11.31;56.19;97677.44;4466576;32;20026;-66
2023/04/13 06:38:22;;;;;;;;;;;;;;;11.54;55.88;97681.97;4465991;32;20257;-66
2023/04/13 06:40:50;;;;;;;;;;;;;;;11.72;54.23;97681.72;4465578;32;20014;-66
2023/04/13 06:43:18;;;;;;;;;;;;;;;11.35;54.71;97681.38;4463125;32;19976;-65
2023/04/13 06:46:00;;;;;;;;;;;;;;;11.38;55.88;97680.19;4467807;32;20033;-65
2023/04/13 06:48:28;;;;;;;;;;;;;;;11.22;56.66;97695.97;4466793;32;19985;-65
2023/04/13 06:50:58;;;;;;;;;;;;;;;11.42;59.20;97680.69;4466126;32;19984;-65
2023/04/13 06:53:26;;;;;;;;;;;;;;;11.36;58.53;97682.19;4471146;32;20027;-65
2023/04/13 06:55:53;;;;;;;;;;;;;;;11.49;55.16;97692.97;4465390;32;20029;-65
2023/04/13 06:58:22;;;;;;;;;;;;;;;11.95;58.78;97691.47;4473588;32;19979;-66
2023/04/13 07:00:49;;;;;;;;;;;;;;;11.87;57.62;97695.75;4465135;32;19980;-65
2023/04/13 07:03:17;;;;;;;;;;;;;;;12.07;57.09;97690.91;4466888;32;20413;-65
2023/04/13 07:05:45;;;;;;;;;;;;;;;12.07;55.34;97679.59;4469042;32;20311;-65
2023/04/13 07:08:13;;;;;;;;;;;;;;;12.33;56.37;97689.75;4475773;32;20063;-65
2023/04/13 07:10:41;;;;;;;;;;;;;;;12.23;56.63;97692.63;4471806;32;20011;-65
2023/04/13 07:13:10;;;;;;;;;;;;;;;12.51;57.09;97696.53;4466008;32;20016;-65
2023/04/13 07:15:37;;;;;;;;;;;;;;;12.43;57.41;97695.59;4467204;32;20412;-65
2023/04/13 07:18:05;;;;;;;;;;;;;;;12.40;55.27;97705.66;4456726;32;19996;-65
2023/04/13 07:20:34;;;;;;;;;;;;;;;12.58;56.17;97702.69;4466707;32;20021;-65
2023/04/13 07:23:02;;;;;;;;;;;;;;;12.59;54.94;97707.78;4467432;32;20267;-65
2023/04/13 07:25:29;;;;;;;;;;;;;;;13.02;56.10;97704.66;4468696;32;20374;-65
2023/04/13 07:27:57;;;;;;;;;;;;;;;13.35;55.36;97708.78;4467998;32;19977;-65
2023/04/13 07:30:24;;;;;;;;;;;;;;;13.54;55.73;97716.13;4460368;32;20034;-66
2023/04/13 07:32:52;;;;;;;;;;;;;;;13.63;53.95;97706.34;4467583;32;20269;-65
2023/04/13 07:35:20;;;;;;;;;;;;;;;13.58;54.83;97720.03;4470739;32;20040;-66
2023/04/13 07:37:48;;;;;;;;;;;;;;;13.90;56.12;97710.09;4470222;32;19988;-65
2023/04/13 07:40:20;;;;;;;;;;;;;;;13.96;54.07;97713.78;4468906;32;20379;-65
2023/04/13 07:42:48;;;;;;;;;;;;;;;14.05;53.47;97714.50;4469860;32;20369;-65
2023/04/13 07:45:16;;;;;;;;;;;;;;;13.99;52.58;97719.53;4470413;32;20330;-65
2023/04/13 07:47:44;;;;;;;;;;;;;;;13.92;55.63;97721.25;4470869;32;20048;-65
2023/04/13 07:50:12;;;;;;;;;;;;;;;13.53;54.29;97721.56;4470761;32;19983;-65
2023/04/13 07:52:41;;;;;;;;;;;;;;;13.46;53.57;97718.88;4470814;32;19992;-66
2023/04/13 07:55:09;;;;;;;;;;;;;;;13.71;55.27;97713.31;4470774;32;19991;-65
2023/04/13 07:57:36;;;;;;;;;;;;;;;14.06;55.12;97716.97;4470777;32;20022;-65
2023/04/13 08:00:05;;;;;;;;;;;;;;;14.08;51.96;97716.78;4470347;32;20040;-65
2023/04/13 08:02:40;;;;;;;;;;;;;;;13.97;54.34;97712.81;4470619;32;20017;-66
2023/04/13 08:05:09;;;;;;;;;;;;;;;13.44;55.61;97710.31;4470612;32;19995;-65
2023/04/13 08:07:36;;;;;;;;;;;;;;;13.38;55.46;97714.47;4470474;32;20352;-65
2023/04/13 08:10:04;;;;;;;;;;;;;;;13.12;57.09;97713.06;4470438;32;19988;-65
2023/04/13 08:12:31;;;;;;;;;;;;;;;13.61;56.43;97703.88;4457701;32;20384;-65
2023/04/13 08:14:59;;;;;;;;;;;;;;;13.73;53.81;97711.31;4463771;32;20330;-65
2023/04/13 08:17:27;;;;;;;;;;;;;;;13.76;54.83;97708.31;4470153;32;19984;-66
2023/04/13 08:19:54;;;;;;;;;;;;;;;13.90;56.48;97704.84;4470387;32;19996;-65
2023/04/13 08:22:22;;;;;;;;;;;;;;;13.93;54.53;97707.09;4469799;32;20389;-66
2023/04/13 08:24:49;;;;;;;;;;;;;;;14.18;53.93;97719.94;4470301;32;20317;-66
2023/04/13 08:27:18;;;;;;;;;;;;;;;14.40;54.34;97714.69;4470539;32;19988;-66
2023/04/13 08:29:45;;;;;;;;;;;;;;;14.38;54.11;97712.22;4470386;32;19980;-66
2023/04/13 08:32:13;;;;;;;;;;;;;;;14.45;53.29;97718.38;4470289;32;20045;-65
2023/04/13 08:34:41;;;;;;;;;;;;;;;14.55;52.16;97710.19;4470517;32;20002;-66
2023/04/13 08:37:10;;;;;;;;;;;;;;;14.47;53.61;97710.28;4470047;32;20043;-66
2023/04/13 08:39:38;;;;;;;;;;;;;;;14.63;51.16;97710.06;4470674;32;20018;-66
2023/04/13 08:42:06;;;;;;;;;;;;;;;14.94;53.36;97708.91;4470078;32;19992;-66
2023/04/13 08:44:37;;;;;;;;;;;;;;;14.83;51.81;97704.16;4470464;32;20334;-65
2023/04/13 08:47:04;;;;;;;;;;;;;;;14.81;50.53;97698.28;4469137;32;20290;-66
2023/04/13 08:49:32;;;;;;;;;;;;;;;14.62;55.13;97700.53;4470478;32;19995;-65
2023/04/13 08:52:03;;;;;;;;;;;;;;;14.35;53.71;97696.81;4470318;32;20033;-66
2023/04/13 08:54:31;;;;;;;;;;;;;;;14.88;50.95;97694.69;4470473;32;19968;-65
2023/04/13 08:56:59;;;;;;;;;;;;;;;15.24;49.22;97696.31;4470228;32;20036;-65
2023/04/13 08:59:28;;;;;;;;;;;;;;;15.14;52.38;97700.31;4469040;32;19992;-66
2023/04/13 09:01:56;;;;;;;;;;;;;;;15.81;50.33;97692.81;4470219;32;20003;-65
2023/04/13 09:04:24;;;;;;;;;;;;;;;15.39;48.02;97690.94;4470284;32;20060;-66
2023/04/13 09:06:53;;;;;;;;;;;;;;;15.18;49.31;97698.94;4468973;32;20051;-65
2023/04/13 09:09:21;;;;;;;;;;;;;;;15.07;49.50;97698.44;4469124;32;20003;-65
2023/04/13 09:11:50;;;;;;;;;;;;;;;15.12;50.32;97691.78;4468000;32;19980;-66
2023/04/13 09:14:19;;;;;;;;;;;;;;;15.33;48.15;97696.19;4470271;32;20314;-65
2023/04/13 09:16:47;;;;;;;;;;;;;;;14.99;50.24;97690.69;4469972;32;19987;-66
2023/04/13 09:19:16;;;;;;;;;;;;;;;15.59;49.94;97700.78;4470263;32;19984;-65
2023/04/13 09:21:44;;;;;;;;;;;;;;;16.02;49.12;97705.06;4469821;32;19976;-66
2023/04/13 09:24:12;;;;;;;;;;;;;;;15.78;49.41;97700.09;4469947;32;19982;-66
2023/04/13 09:26:42;;;;;;;;;;;;;;;15.72;49.68;97700.06;4469834;32;19980;-66
2023/04/13 09:29:12;;;;;;;;;;;;;;;16.21;48.61;97709.59;4469868;32;19999;-66
2023/04/13 09:31:40;;;;;;;;;;;;;;;16.78;47.82;97704.00;4469702;32;19995;-65
2023/04/13 09:34:11;;;;;;;;;;;;;;;16.54;49.08;97700.91;4469108;32;19980;-66
2023/04/13 09:36:39;;;;;;;;;;;;;;;16.94;49.18;97700.13;4469505;32;20022;-66
2023/04/13 09:39:25;;;;;;;;;;;;;;;16.81;48.05;97693.81;4469968;32;20470;-66
2023/04/13 09:41:53;;;;;;;;;;;;;;;16.75;46.43;97694.63;4469462;32;20379;-66
2023/04/13 09:44:23;;;;;;;;;;;;;;;17.03;46.94;97704.19;4469807;32;20492;-66
2023/04/13 09:46:57;;;;;;;;;;;;;;;17.27;48.05;97697.44;4469726;32;19972;-66
2023/04/13 09:49:35;;;;;;;;;;;;;;;17.23;46.63;97698.91;4469858;32;19980;-66
2023/04/13 09:52:04;;;;;;;;;;;;;;;17.12;46.99;97700.34;4469597;32;19984;-66
2023/04/13 09:54:32;;;;;;;;;;;;;;;16.80;47.08;97696.66;4470011;32;20338;-66
2023/04/13 09:56:59;;;;;;;;;;;;;;;16.80;50.84;97688.72;4469779;32;20051;-66
2023/04/13 09:59:26;;;;;;;;;;;;;;;17.19;46.86;97681.81;4469648;32;19980;-66
2023/04/13 10:01:54;;;;;;;;;;;;;;;17.82;48.19;97693.63;4469603;32;20326;-66
2023/04/13 10:04:21;;;;;;;;;;;;;;;18.21;47.56;97697.16;4468358;32;19983;-66
2023/04/13 10:06:49;;;;;;;;;;;;;;;18.77;47.82;97695.53;4469615;32;20036;-66
2023/04/13 10:09:16;;;;;;;;;;;;;;;18.85;45.43;97692.66;4469861;32;20689;-66
2023/04/13 10:11:44;;;;;;;;;;;;;;;18.83;43.25;97689.38;4469200;32;19994;-66
2023/04/13 10:14:22;;;;;;;;;;;;;;;19.00;42.83;97691.50;4469375;32;19972;-66
2023/04/13 10:17:28;;;;;;;;;;;;;;;18.03;43.92;97695.19;4468289;32;20343;-66
2023/04/13 10:19:57;;;;;;;;;;;;;;;18.40;41.95;97700.72;4405200;32;20011;-66
2023/04/13 10:22:25;;;;;;;;;;;;;;;17.94;44.76;97699.94;4405213;32;20382;-66
2023/04/13 10:24:53;;;;;;;;;;;;;;;18.05;42.08;97703.78;4405169;32;20040;-66
2023/04/13 10:27:21;;;;;;;;;;;;;;;18.29;42.05;97693.44;4405154;32;20011;-66
2023/04/13 10:29:48;;;;;;;;;;;;;;;18.24;43.31;97697.56;4405235;32;20335;-66
2023/04/13 10:32:23;;;;;;;;;;;;;;;17.10;44.28;97701.56;4405215;32;19988;-66
2023/04/13 10:34:51;;;;;;;;;;;;;;;17.33;47.10;97695.81;4405237;32;20044;-66
2023/04/13 10:37:20;;;;;;;;;;;;;;;17.43;45.85;97701.50;4404911;32;20068;-66
2023/04/13 10:39:47;;;;;;;;;;;;;;;17.24;43.88;97692.56;4405249;32;20009;-66
2023/04/13 10:42:16;;;;;;;;;;;;;;;17.32;44.90;97695.03;4404812;32;19973;-66
2023/04/13 10:44:44;;;;;;;;;;;;;;;17.45;47.62;97702.09;4404992;32;19985;-66
2023/04/13 10:47:12;;;;;;;;;;;;;;;17.79;45.90;97699.34;4406560;32;20024;-66
2023/04/13 10:49:40;;;;;;;;;;;;;;;16.65;47.78;97689.75;4410433;32;20013;-66
2023/04/13 10:52:08;;;;;;;;;;;;;;;17.33;47.81;97682.59;4470884;32;20314;-66
2023/04/13 10:54:36;;;;;;;;;;;;;;;17.90;48.36;97681.00;4470858;32;20328;-66
2023/04/13 10:57:05;;;;;;;;;;;;;;;18.44;46.80;97688.66;4470912;32;20089;-66
2023/04/13 10:59:36;;;;;;;;;;;;;;;18.54;43.95;97681.03;4470940;32;20062;-66
2023/04/13 11:02:28;;;;;;;;;;;;;;;18.23;43.17;97673.91;4471037;32;19990;-66
2023/04/13 11:04:56;;;;;;;;;;;;;;;18.67;43.66;97671.34;4470490;32;20029;-66
2023/04/13 11:07:27;;;;;;;;;;;;;;;18.60;44.30;97672.19;4470928;32;19993;-66
2023/04/13 11:09:58;;;;;;;;;;;;;;;19.04;42.93;97669.63;4470770;32;20004;-66
2023/04/13 11:12:28;;;;;;;;;;;;;;;19.09;41.80;97672.44;4470778;32;20031;-66
2023/04/13 11:14:56;;;;;;;;;;;;;;;19.50;41.41;97672.84;4471104;32;19999;-66
2023/04/13 11:17:23;;;;;;;;;;;;;;;19.88;42.15;97669.16;4470765;32;20310;-66
2023/04/13 11:19:51;;;;;;;;;;;;;;;20.17;42.82;97661.41;4470298;32;20291;-66
2023/04/13 11:22:22;;;;;;;;;;;;;;;20.19;38.28;97662.78;4470165;32;20011;-66
2023/04/13 11:24:49;;;;;;;;;;;;;;;20.11;42.17;97657.00;4470647;32;19980;-66
2023/04/13 11:27:17;;;;;;;;;;;;;;;20.10;41.29;97658.81;4471012;32;19996;-66
2023/04/13 11:29:45;;;;;;;;;;;;;;;20.26;38.75;97653.91;4470656;32;19980;-66
2023/04/13 11:32:19;;;;;;;;;;;;;;;20.10;40.91;97666.81;4470793;32;20329;-66
2023/04/13 11:34:48;;;;;;;;;;;;;;;20.46;39.89;97665.06;4470605;32;20045;-66
2023/04/13 11:37:15;;;;;;;;;;;;;;;19.93;39.30;97656.00;4470789;32;20048;-66
2023/04/13 11:39:42;;;;;;;;;;;;;;;19.95;40.23;97653.91;4470643;32;19976;-66
2023/04/13 11:42:13;;;;;;;;;;;;;;;19.87;40.57;97648.91;4470367;32;20397;-66
2023/04/13 11:44:43;;;;;;;;;;;;;;;19.54;39.43;97652.75;4470618;32;20011;-66
2023/04/13 11:47:14;;;;;;;;;;;;;;;19.68;39.98;97650.75;4470724;32;20043;-66
2023/04/13 11:49:46;;;;;;;;;;;;;;;19.62;40.44;97655.13;4469421;32;20059;-66
2023/04/13 11:52:14;;;;;;;;;;;;;;;19.37;42.38;97657.06;4469827;32;19997;-66
2023/04/13 11:54:43;;;;;;;;;;;;;;;19.43;38.67;97656.16;4470444;32;20007;-66
2023/04/13 11:57:11;;;;;;;;;;;;;;;19.24;38.46;97650.84;4470038;32;19984;-66
2023/04/13 11:59:38;;;;;;;;;;;;;;;18.80;38.87;97647.34;4469295;32;20452;-66
2023/04/13 12:02:05;;;;;;;;;;;;;;;18.59;38.36;97646.72;4470589;32;20044;-66
2023/04/13 12:04:47;;;;;;;;;;;;;;;18.58;40.43;97650.41;4470438;32;19976;-66
2023/04/13 12:07:15;;;;;;;;;;;;;;;18.56;38.06;97643.66;4469230;32;19992;-66
2023/04/13 12:09:44;;;;;;;;;;;;;;;18.51;40.43;97644.31;4469257;32;19988;-66
2023/04/13 12:12:17;;;;;;;;;;;;;;;18.59;40.79;97641.41;4470171;32;20080;-66
2023/04/13 12:14:51;;;;;;;;;;;;;;;18.51;39.00;97636.38;4470269;32;19995;-66
2023/04/13 12:17:39;;;;;;;;;;;;;;;18.15;40.06;97647.63;4469784;32;20049;-66
2023/04/13 12:20:15;;;;;;;;;;;;;;;18.44;42.41;97627.66;4470466;32;20047;-66
2023/04/13 12:22:43;;;;;;;;;;;;;;;18.28;39.80;97639.59;4470451;32;19975;-66
2023/04/13 12:25:26;;;;;;;;;;;;;;;18.15;40.11;97643.13;4470149;32;20330;-66
2023/04/13 12:28:02;;;;;;;;;;;;;;;17.91;39.59;97636.75;4470756;32;20124;-66
2023/04/13 12:30:30;;;;;;;;;;;;;;;17.98;42.28;97626.12;4469997;32;19999;-66
2023/04/13 12:32:58;;;;;;;;;;;;;;;18.20;42.46;97614.16;4468893;32;19993;-66
2023/04/13 12:35:25;;;;;;;;;;;;;;;18.48;42.72;97607.63;4470068;32;20044;-66
2023/04/13 12:37:52;;;;;;;;;;;;;;;18.32;40.75;97609.00;4470392;32;20018;-66
2023/04/13 12:40:20;;;;;;;;;;;;;;;18.59;38.61;97609.59;4470428;32;20650;-66
2023/04/13 12:42:47;;;;;;;;;;;;;;;18.94;43.30;97609.09;4470064;32;20024;-66
2023/04/13 12:45:15;;;;;;;;;;;;;;;19.10;42.07;97609.53;4470190;32;19980;-66
2023/04/13 12:47:43;;;;;;;;;;;;;;;19.44;42.71;97610.78;4470356;32;19995;-66
2023/04/13 12:50:10;;;;;;;;;;;;;;;19.46;40.84;97607.91;4470239;32;20039;-66
2023/04/13 12:52:40;;;;;;;;;;;;;;;19.15;40.53;97601.72;4470230;32;20036;-66
2023/04/13 12:55:08;;;;;;;;;;;;;;;18.92;40.77;97597.88;4469882;32;20000;-66
2023/04/13 12:57:38;;;;;;;;;;;;;;;18.62;40.28;97603.84;4470165;32;20443;-66
2023/04/13 13:00:09;;;;;;;;;;;;;;;18.52;39.13;97600.87;4469807;32;19987;-66